Time;durP1;ratioP1;P1;durP2;ratioP2;P2;SDS_P1;SDS_P2;PMS_P1;PMS_P2;Temp;Humidity;BMP_temperature;BMP_pressure;BME280_temperature;BME280_humidity;BME280_pressure;Samples;Min_cycle;Max_cycle;Signal;HPM_P1;HPM_P2
2022/01/04 00:00:59;;;;;;;20.67;4.63;;;;;;;;;;5096833;28;20050;-78
2022/01/04 00:03:26;;;;;;;18.42;4.13;;;;;;;;;;5080161;28;20050;-81
2022/01/04 00:05:52;;;;;;;21.80;4.35;;;;;;;;;;5095544;28;20449;-79
2022/01/04 00:08:18;;;;;;;18.70;4.10;;;;;;;;;;5096525;28;20054;-79
2022/01/04 00:10:44;;;;;;;19.15;4.72;;;;;;;;;;5080230;28;20035;-79
2022/01/04 00:13:23;;;;;;;20.52;4.45;;;;;;;;;;5089108;28;20040;-79
2022/01/04 00:15:53;;;;;;;17.98;3.90;;;;;;;;;;5080315;28;20057;-79
2022/01/04 00:18:19;;;;;;;17.77;4.63;;;;;;;;;;5094760;28;20054;-81
2022/01/04 00:20:46;;;;;;;25.92;5.05;;;;;;;;;;5080018;28;20122;-79
2022/01/04 00:23:13;;;;;;;16.55;4.30;;;;;;;;;;5102813;28;20044;-82
2022/01/04 00:25:39;;;;;;;18.23;4.68;;;;;;;;;;5097814;28;20385;-80
2022/01/04 00:28:07;;;;;;;20.65;5.30;;;;;;;;;;5079095;28;20039;-79
2022/01/04 00:30:42;;;;;;;16.42;4.15;;;;;;;;;;5084065;28;20032;-81
2022/01/04 00:33:09;;;;;;;17.02;4.30;;;;;;;;;;5079689;28;20292;-80
2022/01/04 00:35:36;;;;;;;20.55;4.45;;;;;;;;;;5096535;28;20071;-80
2022/01/04 00:38:02;;;;;;;19.27;4.47;;;;;;;;;;5078899;28;20043;-78
2022/01/04 00:40:28;;;;;;;24.10;5.10;;;;;;;;;;5080899;28;20043;-81
2022/01/04 00:42:55;;;;;;;21.02;5.45;;;;;;;;;;5088617;27;20035;-80
2022/01/04 00:45:22;;;;;;;21.05;3.95;;;;;;;;;;5096470;28;20036;-81
2022/01/04 00:50:21;;;;;;;20.35;5.28;;;;;;;;;;5096502;28;20430;-80
2022/01/04 00:52:47;;;;;;;23.67;4.47;;;;;;;;;;5096943;28;20100;-80
2022/01/04 00:55:13;;;;;;;25.92;4.65;;;;;;;;;;5085313;28;20039;-79
2022/01/04 00:57:40;;;;;;;21.75;4.20;;;;;;;;;;5096847;28;20051;-80
2022/01/04 01:00:06;;;;;;;24.45;4.95;;;;;;;;;;5095564;28;20043;-79
2022/01/04 01:02:32;;;;;;;23.98;5.10;;;;;;;;;;5079504;28;20040;-79
2022/01/04 01:04:58;;;;;;;18.83;4.53;;;;;;;;;;5079630;28;20039;-78
2022/01/04 01:07:24;;;;;;;15.30;4.28;;;;;;;;;;5096492;28;20071;-80
2022/01/04 01:12:28;;;;;;;24.05;5.35;;;;;;;;;;5117129;27;20111;-79
2022/01/04 01:14:55;;;;;;;19.02;4.47;;;;;;;;;;5082431;28;20046;-79
2022/01/04 01:17:21;;;;;;;20.05;5.22;;;;;;;;;;5078506;28;20053;-78
2022/01/04 01:19:47;;;;;;;25.98;5.18;;;;;;;;;;5072207;28;20374;-79
2022/01/04 01:22:13;;;;;;;24.70;5.22;;;;;;;;;;5080048;28;20050;-79
2022/01/04 01:24:39;;;;;;;22.77;4.88;;;;;;;;;;5078377;28;20054;-79
2022/01/04 01:27:05;;;;;;;15.65;4.18;;;;;;;;;;5096627;28;20415;-79
2022/01/04 01:29:31;;;;;;;22.15;4.93;;;;;;;;;;5075528;28;20451;-80
2022/01/04 01:31:57;;;;;;;17.73;4.75;;;;;;;;;;5080312;28;20119;-79
2022/01/04 01:34:23;;;;;;;21.83;5.13;;;;;;;;;;5079867;28;20473;-79
2022/01/04 01:36:50;;;;;;;18.20;4.75;;;;;;;;;;5096303;28;20043;-79
2022/01/04 01:39:16;;;;;;;23.25;4.28;;;;;;;;;;5079578;28;20122;-79
2022/01/04 01:41:42;;;;;;;16.90;4.28;;;;;;;;;;5087357;28;20050;-79
2022/01/04 01:44:08;;;;;;;22.35;5.10;;;;;;;;;;5078864;28;20088;-79
2022/01/04 01:46:35;;;;;;;21.45;5.25;;;;;;;;;;5078740;28;20114;-79
2022/01/04 01:49:01;;;;;;;15.45;4.75;;;;;;;;;;5078376;28;20050;-79
2022/01/04 01:51:28;;;;;;;23.17;5.00;;;;;;;;;;5079405;28;20042;-80
2022/01/04 01:53:55;;;;;;;22.67;5.32;;;;;;;;;;5079222;28;20180;-82
2022/01/04 01:56:23;;;;;;;17.00;4.35;;;;;;;;;;5096607;28;20044;-80
2022/01/04 01:58:50;;;;;;;20.23;4.88;;;;;;;;;;5078599;28;20451;-81
2022/01/04 02:01:16;;;;;;;21.08;4.70;;;;;;;;;;5083063;28;20043;-80
2022/01/04 02:03:42;;;;;;;21.77;4.82;;;;;;;;;;5082871;28;20443;-80
2022/01/04 02:06:08;;;;;;;23.40;5.65;;;;;;;;;;5081459;28;20055;-82
2022/01/04 02:08:35;;;;;;;24.15;5.82;;;;;;;;;;5099942;28;20036;-81
2022/01/04 02:14:27;;;;;;;21.88;4.80;;;;;;;;;;5115574;28;20035;-87
2022/01/04 02:17:29;;;;;;;;;;;;;;;;;;;;;
2022/01/04 02:35:51;;;;;;;;;;;;;;;;;;;;;
2022/01/04 02:45:50;;;;;;;31.42;6.80;;;;;;;;;;4845959;29;20140;-83
2022/01/04 02:48:32;;;;;;;23.33;5.60;;;;;;;;;;4896138;29;20103;-84
2022/01/04 02:51:33;;;;;;;20.77;6.00;;;;;;;;;;4993584;28;20038;-83
2022/01/04 02:54:49;;;;;;;23.65;6.60;;;;;;;;;;5013450;28;20112;-84
2022/01/04 02:57:36;;;;;;;29.10;6.18;;;;;;;;;;5007267;28;20263;-83
2022/01/04 03:00:26;;;;;;;24.23;6.28;;;;;;;;;;5014397;28;20136;-83
2022/01/04 03:03:08;;;;;;;21.35;5.93;;;;;;;;;;4997188;28;20474;-84
2022/01/04 03:05:51;;;;;;;26.38;6.32;;;;;;;;;;4998104;28;20489;-83
2022/01/04 03:08:39;;;;;;;24.33;5.70;;;;;;;;;;4993255;28;20026;-82
2022/01/04 03:12:08;;;;;;;26.13;5.97;;;;;;;;;;5032380;28;20125;-83
2022/01/04 03:14:52;;;;;;;18.85;5.05;;;;;;;;;;4977656;28;20050;-83
2022/01/04 03:18:04;;;;;;;24.58;6.65;;;;;;;;;;5060905;28;20577;-83
2022/01/04 03:20:54;;;;;;;;;;;;;;;;;;;;;
2022/01/04 03:27:38;;;;;;;23.67;7.45;;;;;;;;;;5013243;28;20049;-82
2022/01/04 03:30:08;;;;;;;28.92;7.47;;;;;;;;;;5064611;28;20403;-83
2022/01/04 03:32:51;;;;;;;23.20;7.95;;;;;;;;;;5094460;28;20052;-83
2022/01/04 03:35:24;;;;;;;27.35;7.20;;;;;;;;;;5041022;28;20072;-82
2022/01/04 03:40:42;;;;;;;33.08;9.07;;;;;;;;;;5035776;28;20127;-83
2022/01/04 03:43:27;;;;;;;24.20;8.00;;;;;;;;;;5021763;28;20497;-82
2022/01/04 03:45:54;;;;;;;31.10;9.07;;;;;;;;;;5020004;28;20091;-82
2022/01/04 03:48:20;;;;;;;36.25;9.43;;;;;;;;;;5032089;28;20044;-83
2022/01/04 03:50:52;;;;;;;28.95;8.00;;;;;;;;;;5023934;28;20056;-83
2022/01/04 03:53:21;;;;;;;32.92;9.40;;;;;;;;;;5031511;28;20070;-82
2022/01/04 03:55:50;;;;;;;27.00;8.10;;;;;;;;;;5023657;28;20545;-82
2022/01/04 03:58:18;;;;;;;31.23;8.32;;;;;;;;;;5019715;28;20425;-83
2022/01/04 04:00:48;;;;;;;33.00;8.23;;;;;;;;;;5036632;28;20132;-82
2022/01/04 04:03:15;;;;;;;33.00;7.75;;;;;;;;;;5019773;28;20084;-81
2022/01/04 04:05:52;;;;;;;28.50;8.07;;;;;;;;;;5032272;28;20103;-82
2022/01/04 04:08:18;;;;;;;31.35;8.40;;;;;;;;;;5072607;28;20051;-82
2022/01/04 04:10:46;;;;;;;34.22;8.48;;;;;;;;;;5076165;28;20063;-82
2022/01/04 04:13:13;;;;;;;24.85;7.43;;;;;;;;;;5087753;28;20051;-82
2022/01/04 04:15:59;;;;;;;23.77;7.72;;;;;;;;;;5099777;28;20054;-82
2022/01/04 04:18:30;;;;;;;30.77;8.20;;;;;;;;;;5066296;28;20052;-82
2022/01/04 04:21:10;;;;;;;33.63;7.53;;;;;;;;;;5094379;28;20081;-83
2022/01/04 04:23:37;;;;;;;28.40;7.35;;;;;;;;;;5068297;28;20430;-82
2022/01/04 04:26:05;;;;;;;25.92;6.35;;;;;;;;;;5040138;28;20048;-82
2022/01/04 04:28:32;;;;;;;32.58;6.93;;;;;;;;;;5053753;28;20054;-82
2022/01/04 04:31:03;;;;;;;23.45;7.32;;;;;;;;;;5060907;28;20048;-81
2022/01/04 04:33:29;;;;;;;29.35;7.07;;;;;;;;;;5060149;28;20052;-82
2022/01/04 04:35:55;;;;;;;26.67;5.63;;;;;;;;;;5060973;28;20046;-82
2022/01/04 04:38:21;;;;;;;19.23;5.80;;;;;;;;;;5065990;28;20036;-82
2022/01/04 04:40:50;;;;;;;28.25;6.75;;;;;;;;;;5076998;28;20131;-81
2022/01/04 04:43:16;;;;;;;24.33;6.28;;;;;;;;;;5059929;28;20046;-82
2022/01/04 04:45:42;;;;;;;26.00;7.32;;;;;;;;;;5060638;28;20117;-81
2022/01/04 04:48:08;;;;;;;30.08;7.38;;;;;;;;;;5085634;28;20039;-81
2022/01/04 04:50:34;;;;;;;23.35;5.75;;;;;;;;;;5060773;28;20040;-80
2022/01/04 04:53:01;;;;;;;25.85;6.35;;;;;;;;;;5076205;28;20051;-81
2022/01/04 04:55:27;;;;;;;25.05;6.43;;;;;;;;;;5060101;28;20075;-81
2022/01/04 04:57:53;;;;;;;23.48;6.30;;;;;;;;;;5059801;28;21132;-80
2022/01/04 05:00:19;;;;;;;26.20;6.63;;;;;;;;;;5087125;28;20043;-81
2022/01/04 05:02:45;;;;;;;25.35;6.93;;;;;;;;;;5096820;28;20031;-82
2022/01/04 05:05:12;;;;;;;31.85;6.53;;;;;;;;;;5077690;28;20056;-80
2022/01/04 05:07:38;;;;;;;23.45;6.43;;;;;;;;;;5059976;28;20048;-82
2022/01/04 05:10:05;;;;;;;28.13;6.15;;;;;;;;;;5059555;28;20496;-81
2022/01/04 05:12:31;;;;;;;31.23;6.25;;;;;;;;;;5059730;28;20506;-81
2022/01/04 05:14:57;;;;;;;26.02;6.22;;;;;;;;;;5076070;28;20058;-80
2022/01/04 05:17:24;;;;;;;24.00;5.38;;;;;;;;;;5076097;28;20118;-81
2022/01/04 05:19:50;;;;;;;30.15;5.50;;;;;;;;;;5060000;28;20059;-80
2022/01/04 05:22:16;;;;;;;22.40;5.20;;;;;;;;;;5076510;28;20048;-80
2022/01/04 05:24:42;;;;;;;30.45;6.18;;;;;;;;;;5059251;28;20105;-80
2022/01/04 05:27:08;;;;;;;25.13;5.72;;;;;;;;;;5059578;28;20055;-81
2022/01/04 05:29:37;;;;;;;20.13;5.28;;;;;;;;;;5059413;28;20032;-83
2022/01/04 05:32:04;;;;;;;24.40;6.10;;;;;;;;;;5062031;28;20080;-77
2022/01/04 05:34:30;;;;;;;20.17;4.72;;;;;;;;;;5094189;28;20417;-78
2022/01/04 05:36:56;;;;;;;18.88;4.68;;;;;;;;;;5076252;28;20127;-80
2022/01/04 05:49:30;;;;;;;14.93;4.05;;;;;;;;;;5626525;22;20055;-84
2022/01/04 05:52:05;;;;;;;16.60;4.88;;;;;;;;;;5086808;28;20183;-84
2022/01/04 05:54:32;;;;;;;18.98;4.55;;;;;;;;;;5080420;28;20031;-84
2022/01/04 05:56:58;;;;;;;18.88;4.50;;;;;;;;;;5079339;28;20040;-83
2022/01/04 05:59:25;;;;;;;15.25;4.47;;;;;;;;;;5079897;28;20043;-83
2022/01/04 06:01:51;;;;;;;17.92;4.55;;;;;;;;;;5078974;28;20422;-83
2022/01/04 06:04:17;;;;;;;16.52;4.10;;;;;;;;;;5080141;28;20092;-83
2022/01/04 06:06:43;;;;;;;23.38;5.00;;;;;;;;;;5079010;28;20095;-83
2022/01/04 06:09:18;;;;;;;15.27;4.60;;;;;;;;;;5075813;28;20456;-82
2022/01/04 06:17:01;;;;;;;19.40;4.60;;;;;;;;;;5114144;28;20035;-77
2022/01/04 06:19:27;;;;;;;11.20;3.42;;;;;;;;;;5095906;28;20054;-77
2022/01/04 06:21:53;;;;;;;12.10;3.60;;;;;;;;;;5105220;28;20032;-82
2022/01/04 06:24:53;;;;;;;;;;;;;;;;;;;;;
2022/01/04 06:36:13;;;;;;;12.75;3.35;;;;;;;;;;4717946;26;20066;-84
2022/01/04 06:38:40;;;;;;;12.10;3.30;;;;;;;;;;4961173;28;20053;-84
2022/01/04 06:41:06;;;;;;;13.98;3.63;;;;;;;;;;4952522;28;20431;-84
2022/01/04 06:43:32;;;;;;;15.52;4.45;;;;;;;;;;4959489;28;20051;-84
2022/01/04 06:45:58;;;;;;;13.15;3.83;;;;;;;;;;4962117;28;20379;-82
2022/01/04 06:48:24;;;;;;;12.35;3.45;;;;;;;;;;4963831;28;20055;-83
2022/01/04 06:50:51;;;;;;;14.68;3.90;;;;;;;;;;4964760;28;20046;-82
2022/01/04 06:53:17;;;;;;;14.30;3.65;;;;;;;;;;4963903;28;20042;-82
2022/01/04 06:55:49;;;;;;;15.07;4.07;;;;;;;;;;4980769;28;20065;-82
2022/01/04 06:58:16;;;;;;;12.20;3.55;;;;;;;;;;4963524;28;20462;-82
2022/01/04 07:00:42;;;;;;;18.80;4.90;;;;;;;;;;4980384;28;20042;-83
2022/01/04 07:03:08;;;;;;;17.73;4.72;;;;;;;;;;4979853;28;20105;-81
2022/01/04 07:05:35;;;;;;;13.52;4.85;;;;;;;;;;4979686;28;20053;-82
2022/01/04 07:08:01;;;;;;;15.13;4.10;;;;;;;;;;4964291;28;20046;-81
2022/01/04 07:10:28;;;;;;;16.27;4.43;;;;;;;;;;4964203;28;20112;-82
2022/01/04 07:12:54;;;;;;;18.75;4.68;;;;;;;;;;4964311;28;20090;-81
2022/01/04 07:15:20;;;;;;;16.77;4.30;;;;;;;;;;4979816;28;20046;-82
2022/01/04 07:17:46;;;;;;;16.80;4.22;;;;;;;;;;4986649;28;20482;-81
2022/01/04 07:20:12;;;;;;;17.58;4.78;;;;;;;;;;4986151;28;20046;-80
2022/01/04 07:22:38;;;;;;;21.45;4.78;;;;;;;;;;4972284;28;20069;-82
2022/01/04 07:25:05;;;;;;;13.18;4.30;;;;;;;;;;4974087;28;20061;-80
2022/01/04 07:27:31;;;;;;;18.77;4.63;;;;;;;;;;4979815;28;20046;-80
2022/01/04 07:29:57;;;;;;;18.20;4.70;;;;;;;;;;4979807;28;20046;-81
2022/01/04 07:32:23;;;;;;;25.52;5.68;;;;;;;;;;4963337;28;20050;-79
2022/01/04 07:34:49;;;;;;;18.58;4.85;;;;;;;;;;4985956;28;20050;-79
2022/01/04 07:37:16;;;;;;;19.05;5.93;;;;;;;;;;4981941;28;20415;-82
2022/01/04 07:39:45;;;;;;;22.23;5.20;;;;;;;;;;4999056;28;20042;-83
2022/01/04 07:42:11;;;;;;;8.25;3.15;;;;;;;;;;4982926;28;20092;-82
2022/01/04 07:44:38;;;;;;;8.18;3.00;;;;;;;;;;4982615;28;20049;-82
2022/01/04 07:47:04;;;;;;;8.23;2.53;;;;;;;;;;4982256;28;20044;-82
2022/01/04 07:49:30;;;;;;;10.70;2.35;;;;;;;;;;4978503;28;20050;-81
2022/01/04 07:52:01;;;;;;;8.80;2.35;;;;;;;;;;4961682;28;20453;-82
2022/01/04 07:54:29;;;;;;;10.18;2.45;;;;;;;;;;4962126;28;20082;-83
2022/01/04 07:56:58;;;;;;;6.93;1.88;;;;;;;;;;4961364;28;20030;-82
2022/01/04 07:59:29;;;;;;;8.57;2.05;;;;;;;;;;4961313;28;20133;-80
2022/01/04 08:01:55;;;;;;;10.52;1.88;;;;;;;;;;4977084;28;20070;-81
2022/01/04 08:04:21;;;;;;;6.22;1.67;;;;;;;;;;4961808;28;20050;-80
2022/01/04 08:06:47;;;;;;;7.32;1.80;;;;;;;;;;4993988;28;20065;-81
2022/01/04 08:09:13;;;;;;;5.38;1.50;;;;;;;;;;4993860;28;20429;-81
2022/01/04 08:11:39;;;;;;;4.80;1.50;;;;;;;;;;4994226;28;20138;-80
2022/01/04 08:14:08;;;;;;;5.85;1.88;;;;;;;;;;4977180;28;20088;-82
2022/01/04 08:16:35;;;;;;;6.03;1.40;;;;;;;;;;4994072;28;20058;-76
2022/01/04 08:19:01;;;;;;;7.03;1.42;;;;;;;;;;5002653;28;20475;-79
2022/01/04 08:21:27;;;;;;;7.93;1.73;;;;;;;;;;4997922;28;20054;-78
2022/01/04 08:23:55;;;;;;;6.90;1.60;;;;;;;;;;4997723;28;20045;-76
2022/01/04 08:26:22;;;;;;;7.85;1.98;;;;;;;;;;4981481;28;20054;-77
2022/01/04 08:28:48;;;;;;;4.63;1.60;;;;;;;;;;4997664;28;20045;-79
2022/01/04 08:31:19;;;;;;;4.53;1.52;;;;;;;;;;4997615;28;20073;-79
2022/01/04 08:33:48;;;;;;;4.07;1.75;;;;;;;;;;4997383;28;20521;-78
2022/01/04 08:36:15;;;;;;;6.47;2.03;;;;;;;;;;4966176;28;20047;-80
2022/01/04 08:38:43;;;;;;;4.05;1.63;;;;;;;;;;4962220;28;20112;-79
2022/01/04 08:41:09;;;;;;;6.00;1.60;;;;;;;;;;4977779;28;20038;-79
2022/01/04 08:43:35;;;;;;;6.05;2.28;;;;;;;;;;4979935;28;20061;-78
2022/01/04 08:46:01;;;;;;;5.28;1.73;;;;;;;;;;4995596;28;20054;-77
2022/01/04 08:48:27;;;;;;;3.58;1.33;;;;;;;;;;4978513;28;20462;-78
2022/01/04 08:50:53;;;;;;;3.83;1.60;;;;;;;;;;5013014;28;20100;-77
2022/01/04 08:53:22;;;;;;;7.03;1.55;;;;;;;;;;5014638;28;20052;-81
2022/01/04 08:55:48;;;;;;;4.55;1.50;;;;;;;;;;4997790;28;20050;-76
2022/01/04 08:58:14;;;;;;;4.38;1.60;;;;;;;;;;5013898;28;20057;-76
2022/01/04 09:00:42;;;;;;;4.88;1.80;;;;;;;;;;4988927;28;20042;-79
2022/01/04 09:03:08;;;;;;;6.95;1.42;;;;;;;;;;4980506;28;20449;-80
2022/01/04 09:05:34;;;;;;;7.00;1.83;;;;;;;;;;4961294;28;20382;-80
2022/01/04 09:08:01;;;;;;;4.18;1.17;;;;;;;;;;4961763;28;20061;-79
2022/01/04 09:10:27;;;;;;;4.25;1.30;;;;;;;;;;4988349;28;20128;-80
2022/01/04 09:15:32;;;;;;;4.25;1.35;;;;;;;;;;4978191;28;20470;-79
2022/01/04 09:20:46;;;;;;;2.97;1.13;;;;;;;;;;4988220;28;20081;-78
2022/01/04 09:23:13;;;;;;;3.45;1.20;;;;;;;;;;4989363;28;20068;-79
2022/01/04 09:25:39;;;;;;;3.95;1.33;;;;;;;;;;4981538;28;20042;-78
2022/01/04 09:28:06;;;;;;;3.67;1.55;;;;;;;;;;4977719;28;20049;-78
2022/01/04 09:30:32;;;;;;;6.32;1.80;;;;;;;;;;4977313;28;20054;-79
2022/01/04 09:32:59;;;;;;;2.53;1.17;;;;;;;;;;4994910;28;20128;-78
2022/01/04 09:35:25;;;;;;;5.63;1.30;;;;;;;;;;4984371;28;20054;-79
2022/01/04 09:37:51;;;;;;;3.22;1.27;;;;;;;;;;4991742;28;20050;-77
2022/01/04 09:40:17;;;;;;;3.47;1.20;;;;;;;;;;4983198;28;20050;-77
2022/01/04 09:42:44;;;;;;;5.07;1.38;;;;;;;;;;4976015;28;20087;-78
2022/01/04 09:45:10;;;;;;;4.03;1.27;;;;;;;;;;4994696;28;20046;-78
2022/01/04 09:47:36;;;;;;;5.70;1.63;;;;;;;;;;4961039;28;20382;-78
2022/01/04 09:50:08;;;;;;;3.63;1.60;;;;;;;;;;4977385;28;20050;-78
2022/01/04 09:52:35;;;;;;;5.93;1.73;;;;;;;;;;4977946;28;20092;-78
2022/01/04 09:55:01;;;;;;;2.17;1.38;;;;;;;;;;4977322;28;20328;-76
2022/01/04 09:57:27;;;;;;;5.28;1.70;;;;;;;;;;4993685;28;20053;-84
2022/01/04 10:00:15;;;;;;;4.28;1.50;;;;;;;;;;4986600;28;20054;-79
2022/01/04 10:02:40;;;;;;;1.98;1.20;;;;;;;;;;4985298;28;20411;-79
2022/01/04 10:05:12;;;;;;;3.25;1.10;;;;;;;;;;4961518;28;20100;-81
2022/01/04 10:07:39;;;;;;;2.00;1.15;;;;;;;;;;4958708;28;20090;-80
2022/01/04 10:10:05;;;;;;;3.40;1.42;;;;;;;;;;4979013;28;20054;-80
2022/01/04 10:12:47;;;;;;;4.93;1.45;;;;;;;;;;4975587;28;20113;-79
2022/01/04 10:15:13;;;;;;;6.68;1.55;;;;;;;;;;4977640;28;20130;-78
2022/01/04 10:17:39;;;;;;;8.60;2.00;;;;;;;;;;4983301;28;20049;-80
2022/01/04 10:20:07;;;;;;;6.80;2.00;;;;;;;;;;4988948;28;20042;-78
2022/01/04 10:22:35;;;;;;;5.70;1.83;;;;;;;;;;4970758;28;20053;-79
2022/01/04 10:25:01;;;;;;;4.97;1.60;;;;;;;;;;4978115;28;20042;-79
2022/01/04 10:27:29;;;;;;;5.05;1.30;;;;;;;;;;4980947;28;20482;-79
2022/01/04 10:30:14;;;;;;;7.07;1.70;;;;;;;;;;4981702;28;20144;-78
2022/01/04 10:32:44;;;;;;;6.72;2.28;;;;;;;;;;4964714;28;20054;-79
2022/01/04 10:35:10;;;;;;;5.50;1.45;;;;;;;;;;4967093;28;20100;-79
2022/01/04 10:37:39;;;;;;;3.53;1.58;;;;;;;;;;5000056;28;20117;-78
2022/01/04 10:40:06;;;;;;;2.97;1.40;;;;;;;;;;5000931;28;20060;-78
2022/01/04 10:42:32;;;;;;;2.25;1.48;;;;;;;;;;5000086;28;20042;-77
2022/01/04 10:44:58;;;;;;;5.45;1.90;;;;;;;;;;4998744;28;20038;-78
2022/01/04 10:47:29;;;;;;;6.70;1.73;;;;;;;;;;4999751;28;20041;-77
2022/01/04 10:49:55;;;;;;;3.65;1.48;;;;;;;;;;5000106;28;20046;-77
2022/01/04 10:52:31;;;;;;;5.93;1.63;;;;;;;;;;4999899;28;20046;-77
2022/01/04 10:55:13;;;;;;;6.82;1.80;;;;;;;;;;4993550;28;20083;-79
2022/01/04 10:57:39;;;;;;;5.18;1.60;;;;;;;;;;4999944;28;20045;-78
2022/01/04 11:00:16;;;;;;;5.80;1.80;;;;;;;;;;4998211;28;20042;-77
2022/01/04 11:02:42;;;;;;;3.80;1.63;;;;;;;;;;4964088;28;20383;-79
2022/01/04 11:05:12;;;;;;;6.32;1.88;;;;;;;;;;4965618;28;20046;-78
2022/01/04 11:07:56;;;;;;;3.50;2.05;;;;;;;;;;4979580;28;20053;-77
2022/01/04 11:10:22;;;;;;;7.53;1.90;;;;;;;;;;4961063;28;20140;-78
2022/01/04 11:12:49;;;;;;;6.18;1.50;;;;;;;;;;4980283;28;20465;-78
2022/01/04 11:15:15;;;;;;;6.32;1.92;;;;;;;;;;4979614;28;20057;-78
2022/01/04 11:17:41;;;;;;;6.70;2.00;;;;;;;;;;4979877;28;20089;-77
2022/01/04 11:20:08;;;;;;;7.45;2.33;;;;;;;;;;4986705;28;20045;-76
2022/01/04 11:22:35;;;;;;;6.28;1.98;;;;;;;;;;4999157;28;20095;-78
2022/01/04 11:25:02;;;;;;;3.90;1.75;;;;;;;;;;4995752;28;20046;-76
2022/01/04 11:27:31;;;;;;;6.60;1.88;;;;;;;;;;4997017;28;20122;-77
2022/01/04 11:29:59;;;;;;;5.40;1.95;;;;;;;;;;4980056;28;20176;-76
2022/01/04 11:32:26;;;;;;;6.88;2.17;;;;;;;;;;4979651;28;20406;-76
2022/01/04 11:34:58;;;;;;;6.03;2.22;;;;;;;;;;4988810;28;20053;-77
2022/01/04 11:37:25;;;;;;;5.30;1.67;;;;;;;;;;4999440;28;20057;-76
2022/01/04 11:39:52;;;;;;;10.73;2.00;;;;;;;;;;4999460;28;20064;-78
2022/01/04 11:42:34;;;;;;;10.18;2.30;;;;;;;;;;5015518;28;20053;-78
2022/01/04 11:45:01;;;;;;;9.20;1.92;;;;;;;;;;4999035;28;20045;-77
2022/01/04 11:47:31;;;;;;;4.63;2.05;;;;;;;;;;4998546;28;20366;-76
2022/01/04 11:50:13;;;;;;;4.82;1.90;;;;;;;;;;4998754;28;20049;-78
2022/01/04 11:52:46;;;;;;;7.47;1.60;;;;;;;;;;5008094;28;20046;-76
2022/01/04 11:55:22;;;;;;;7.32;2.00;;;;;;;;;;4963093;28;20129;-76
2022/01/04 11:57:52;;;;;;;6.93;2.00;;;;;;;;;;4992637;28;20427;-78
2022/01/04 12:00:25;;;;;;;7.30;1.90;;;;;;;;;;4994329;28;20061;-81
2022/01/04 12:03:11;;;;;;;7.10;2.30;;;;;;;;;;4976188;28;20053;-78
2022/01/04 12:05:41;;;;;;;6.43;1.73;;;;;;;;;;4983508;28;20069;-77
2022/01/04 12:08:20;;;;;;;6.78;1.92;;;;;;;;;;5011822;28;20050;-76
2022/01/04 12:10:47;;;;;;;6.70;1.95;;;;;;;;;;4997300;28;20343;-78
2022/01/04 12:13:14;;;;;;;8.38;2.42;;;;;;;;;;4981125;28;20082;-76
2022/01/04 12:15:44;;;;;;;6.82;2.40;;;;;;;;;;4979122;28;20054;-76
2022/01/04 12:18:23;;;;;;;5.22;2.38;;;;;;;;;;4983150;28;20062;-74
2022/01/04 12:20:49;;;;;;;8.20;3.13;;;;;;;;;;4978855;28;20374;-75
2022/01/04 12:23:29;;;;;;;10.75;2.38;;;;;;;;;;4977963;28;20109;-76
2022/01/04 12:26:05;;;;;;;6.32;2.08;;;;;;;;;;4978452;28;20525;-77
2022/01/04 12:28:31;;;;;;;6.00;2.55;;;;;;;;;;4978021;28;20045;-77
2022/01/04 12:31:20;;;;;;;7.57;2.10;;;;;;;;;;4977329;28;20060;-76
2022/01/04 12:33:46;;;;;;;10.00;2.10;;;;;;;;;;4992761;28;20058;-76
2022/01/04 12:36:23;;;;;;;6.68;2.05;;;;;;;;;;4961834;28;20430;-76
2022/01/04 12:38:49;;;;;;;7.50;2.10;;;;;;;;;;4967822;28;20479;-76
2022/01/04 12:41:16;;;;;;;5.85;1.88;;;;;;;;;;4962527;28;20054;-76
2022/01/04 12:43:46;;;;;;;8.98;2.17;;;;;;;;;;4977333;28;20050;-77
2022/01/04 12:46:12;;;;;;;6.15;2.20;;;;;;;;;;4978156;28;20058;-76
2022/01/04 12:48:48;;;;;;;5.70;2.08;;;;;;;;;;4977002;28;20046;-75
2022/01/04 12:51:14;;;;;;;;;;;;;;;;;;4976029;28;20043;-76
2022/01/04 12:53:40;;;;;;;8.73;1.80;;;;;;;;;;4978430;28;20353;-75
2022/01/04 12:56:06;;;;;;;5.35;2.05;;;;;;;;;;4978873;28;20050;-76
2022/01/04 12:58:37;;;;;;;6.18;2.13;;;;;;;;;;4978450;28;20061;-78
2022/01/04 13:01:03;;;;;;;4.38;2.00;;;;;;;;;;4994880;28;20042;-76
2022/01/04 13:03:32;;;;;;;4.75;1.70;;;;;;;;;;4977383;28;20054;-76
2022/01/04 13:06:04;;;;;;;5.75;1.70;;;;;;;;;;4978160;28;20054;-76
2022/01/04 13:08:31;;;;;;;7.80;2.15;;;;;;;;;;4978276;28;20053;-77
2022/01/04 13:11:09;;;;;;;4.95;1.98;;;;;;;;;;4995422;28;20065;-76
2022/01/04 13:13:37;;;;;;;6.65;1.77;;;;;;;;;;4978276;28;20133;-76
2022/01/04 13:16:22;;;;;;;5.15;2.28;;;;;;;;;;4977911;28;20382;-76
2022/01/04 13:18:48;;;;;;;5.10;1.70;;;;;;;;;;4979855;28;20126;-76
2022/01/04 13:21:15;;;;;;;5.57;1.80;;;;;;;;;;4977965;28;20402;-76
2022/01/04 13:23:42;;;;;;;5.25;1.70;;;;;;;;;;4977872;28;20061;-74
2022/01/04 13:26:14;;;;;;;5.80;1.98;;;;;;;;;;4977931;28;20061;-77
2022/01/04 13:28:40;;;;;;;7.03;2.05;;;;;;;;;;4977782;28;20170;-77
2022/01/04 13:31:06;;;;;;;5.93;2.20;;;;;;;;;;4976923;28;20454;-78
2022/01/04 13:33:32;;;;;;;7.88;2.13;;;;;;;;;;4976430;28;20121;-76
2022/01/04 13:35:59;;;;;;;4.82;2.10;;;;;;;;;;5019782;28;20069;-76
2022/01/04 13:38:26;;;;;;;7.80;2.90;;;;;;;;;;5013326;28;20192;-76
2022/01/04 13:40:55;;;;;;;4.15;2.40;;;;;;;;;;5013291;28;20064;-77
2022/01/04 13:43:28;;;;;;;6.32;2.13;;;;;;;;;;5030941;28;20461;-77
2022/01/04 13:45:55;;;;;;;5.95;1.95;;;;;;;;;;5016696;28;20164;-75
2022/01/04 13:48:26;;;;;;;13.82;2.63;;;;;;;;;;5010845;28;20046;-76
2022/01/04 13:50:53;;;;;;;8.35;2.10;;;;;;;;;;5032452;28;20045;-76
2022/01/04 13:53:23;;;;;;;6.88;2.10;;;;;;;;;;5033089;28;20041;-78
2022/01/04 13:55:50;;;;;;;6.63;1.98;;;;;;;;;;5021432;28;20454;-75
2022/01/04 13:58:34;;;;;;;7.35;2.72;;;;;;;;;;5011793;28;20469;-75
2022/01/04 14:01:19;;;;;;;7.63;2.35;;;;;;;;;;5009736;28;20045;-75
2022/01/04 14:03:53;;;;;;;7.22;1.98;;;;;;;;;;5000772;28;20377;-76
2022/01/04 14:06:28;;;;;;;7.25;2.33;;;;;;;;;;5005440;28;20050;-77
2022/01/04 14:08:55;;;;;;;7.23;1.93;;;;;;;;;;5017429;28;20061;-75
2022/01/04 14:11:25;;;;;;;6.03;2.17;;;;;;;;;;4993341;28;20043;-76
2022/01/04 14:13:51;;;;;;;7.97;2.30;;;;;;;;;;4998400;28;20068;-76
2022/01/04 14:16:19;;;;;;;7.63;2.13;;;;;;;;;;5015141;28;20466;-76
2022/01/04 14:19:06;;;;;;;7.40;2.30;;;;;;;;;;5017755;28;20049;-76
2022/01/04 14:21:33;;;;;;;12.70;2.17;;;;;;;;;;4997047;28;20746;-76
2022/01/04 14:24:00;;;;;;;8.65;2.20;;;;;;;;;;4997684;28;20050;-76
2022/01/04 14:26:27;;;;;;;8.70;2.20;;;;;;;;;;5005408;28;20132;-75
2022/01/04 14:28:53;;;;;;;8.82;3.70;;;;;;;;;;5012354;28;20100;-77
2022/01/04 14:31:20;;;;;;;6.93;2.13;;;;;;;;;;5002595;28;20180;-78
2022/01/04 14:33:46;;;;;;;9.35;2.20;;;;;;;;;;5006770;28;20046;-76
2022/01/04 14:36:12;;;;;;;11.15;3.15;;;;;;;;;;5025756;28;20121;-76
2022/01/04 14:38:38;;;;;;;8.40;1.98;;;;;;;;;;5000999;28;20056;-76
2022/01/04 14:41:04;;;;;;;6.45;2.05;;;;;;;;;;5000603;28;20116;-74
2022/01/04 14:43:30;;;;;;;10.82;2.47;;;;;;;;;;5000072;28;20091;-76
2022/01/04 14:45:56;;;;;;;9.45;2.30;;;;;;;;;;5014971;28;20060;-76
2022/01/04 14:48:24;;;;;;;11.68;2.40;;;;;;;;;;4991651;28;20046;-77
2022/01/04 14:50:50;;;;;;;9.43;2.20;;;;;;;;;;5002280;28;20068;-76
2022/01/04 14:53:16;;;;;;;8.27;2.10;;;;;;;;;;5019900;28;20103;-75
2022/01/04 14:55:43;;;;;;;6.25;2.50;;;;;;;;;;5018794;28;20128;-75
2022/01/04 14:58:10;;;;;;;8.25;2.20;;;;;;;;;;5000555;28;20532;-74
2022/01/04 15:00:37;;;;;;;10.02;2.13;;;;;;;;;;5018980;28;20091;-79
2022/01/04 15:03:04;;;;;;;9.40;2.90;;;;;;;;;;5002752;28;20053;-76
2022/01/04 15:05:31;;;;;;;12.52;2.30;;;;;;;;;;5017440;28;20085;-76
2022/01/04 15:07:57;;;;;;;8.25;2.53;;;;;;;;;;4999064;28;20124;-76
2022/01/04 15:10:23;;;;;;;8.23;2.42;;;;;;;;;;4999829;28;20056;-78
2022/01/04 15:12:49;;;;;;;6.45;2.15;;;;;;;;;;4996469;28;20065;-76
2022/01/04 15:15:15;;;;;;;8.55;2.22;;;;;;;;;;5014126;28;20101;-75
2022/01/04 15:17:41;;;;;;;6.43;2.25;;;;;;;;;;4999735;28;20444;-75
2022/01/04 15:20:08;;;;;;;6.25;1.92;;;;;;;;;;4995922;28;20042;-76
2022/01/04 15:22:37;;;;;;;6.80;2.10;;;;;;;;;;4991380;28;20065;-76
2022/01/04 15:25:03;;;;;;;5.72;2.30;;;;;;;;;;4999187;28;20125;-76
2022/01/04 15:27:29;;;;;;;6.50;2.17;;;;;;;;;;4999381;28;20390;-75
2022/01/04 15:29:56;;;;;;;7.10;1.88;;;;;;;;;;4999233;28;20115;-76
2022/01/04 15:32:23;;;;;;;5.88;2.33;;;;;;;;;;4998794;28;20046;-76
2022/01/04 15:34:49;;;;;;;7.18;2.20;;;;;;;;;;5012819;28;20149;-77
2022/01/04 15:37:15;;;;;;;6.07;2.63;;;;;;;;;;4993598;28;20081;-76
2022/01/04 15:39:42;;;;;;;6.20;2.13;;;;;;;;;;4999221;28;20050;-75
2022/01/04 15:42:08;;;;;;;10.27;2.70;;;;;;;;;;4998992;28;20472;-75
2022/01/04 15:44:37;;;;;;;5.53;2.10;;;;;;;;;;4982866;28;20072;-81
2022/01/04 15:47:04;;;;;;;7.50;2.10;;;;;;;;;;5015784;28;20054;-77
2022/01/04 15:49:32;;;;;;;9.18;2.42;;;;;;;;;;4989052;28;20050;-76
2022/01/04 15:51:58;;;;;;;7.45;2.30;;;;;;;;;;5005092;28;20470;-77
2022/01/04 15:54:24;;;;;;;10.05;2.60;;;;;;;;;;4985308;28;20046;-80
2022/01/04 15:56:50;;;;;;;8.85;2.50;;;;;;;;;;5004709;28;20046;-80
2022/01/04 15:59:16;;;;;;;9.88;2.60;;;;;;;;;;5002045;28;20045;-75
2022/01/04 16:01:42;;;;;;;9.40;2.50;;;;;;;;;;5018024;28;20049;-77